createdAt,value
2023-01-31T00:01:33.116Z,6.38
2023-01-31T00:04:03.017Z,6.18
2023-01-31T00:06:39.553Z,6.68
2023-01-31T00:09:08.227Z,5.63
2023-01-31T00:11:35.385Z,5.18
2023-01-31T00:14:05.285Z,6.47
2023-01-31T00:16:32.138Z,5.43
2023-01-31T00:18:58.974Z,5.38
2023-01-31T00:21:27.871Z,6.15
2023-01-31T00:23:55.481Z,6.15
2023-01-31T00:26:23.271Z,6.82
2023-01-31T00:28:52.125Z,5.40
2023-01-31T00:31:19.903Z,5.60
2023-01-31T00:33:49.303Z,6.25
2023-01-31T00:36:22.048Z,5.88
2023-01-31T00:38:50.903Z,5.72
2023-01-31T00:41:18.739Z,5.03
2023-01-31T00:43:45.529Z,5.03
2023-01-31T00:46:12.759Z,7.90
2023-01-31T00:48:39.721Z,5.97
2023-01-31T00:51:07.080Z,5.55
2023-01-31T00:53:34.356Z,5.70
2023-01-31T00:56:08.369Z,5.68
2023-01-31T00:58:35.835Z,6.50
2023-01-31T01:01:10.914Z,7.90
2023-01-31T01:03:38.818Z,7.32
2023-01-31T01:06:06.103Z,7.45
2023-01-31T01:08:33.366Z,7.95
2023-01-31T01:11:21.828Z,7.28
2023-01-31T01:13:49.031Z,8.32
2023-01-31T01:16:37.765Z,8.35
2023-01-31T01:19:08.728Z,9.98
2023-01-31T01:21:39.052Z,11.52
2023-01-31T01:24:13.010Z,8.80
2023-01-31T01:26:40.095Z,8.02
2023-01-31T01:29:06.960Z,8.27
2023-01-31T01:31:34.852Z,8.60
2023-01-31T01:34:05.429Z,8.52
2023-01-31T01:36:36.612Z,8.25
2023-01-31T01:39:05.669Z,7.72
2023-01-31T01:41:36.299Z,8.07
2023-01-31T01:44:43.572Z,8.02
2023-01-31T01:47:16.272Z,7.15
2023-01-31T01:49:43.063Z,7.80
2023-01-31T01:52:13.200Z,8.52
2023-01-31T01:54:46.710Z,7.60
2023-01-31T01:57:17.186Z,8.15
2023-01-31T01:59:50.689Z,7.68
2023-01-31T02:02:17.594Z,7.20
2023-01-31T02:04:49.347Z,7.93
2023-01-31T02:07:16.213Z,7.53
2023-01-31T02:09:51.297Z,9.02
2023-01-31T02:12:18.130Z,7.32
2023-01-31T02:14:46.939Z,7.88
2023-01-31T02:17:15.284Z,7.97
2023-01-31T02:20:19.143Z,7.70
2023-01-31T02:23:10.435Z,8.20
2023-01-31T02:25:37.069Z,7.97
2023-01-31T02:28:37.221Z,7.10
2023-01-31T02:31:06.796Z,7.72
2023-01-31T02:33:44.519Z,8.05
2023-01-31T02:36:18.471Z,8.75
2023-01-31T02:39:14.751Z,8.98
2023-01-31T02:41:56.628Z,8.15
2023-01-31T02:44:59.321Z,7.88
2023-01-31T02:47:43.952Z,8.82
2023-01-31T02:50:31.783Z,8.18
2023-01-31T02:53:26.375Z,8.07
2023-01-31T02:56:20.514Z,8.35
2023-01-31T02:58:48.257Z,9.68
2023-01-31T03:01:20.976Z,9.00
2023-01-31T03:03:47.996Z,11.27
2023-01-31T03:06:23.366Z,9.10
2023-01-31T03:08:56.996Z,9.05
2023-01-31T03:11:31.435Z,8.30
2023-01-31T03:14:24.152Z,7.65
2023-01-31T03:19:58.510Z,9.18
2023-01-31T03:22:35.880Z,8.52
2023-01-31T03:25:05.523Z,9.02
2023-01-31T03:27:33.589Z,10.35
2023-01-31T03:30:17.448Z,8.77
2023-01-31T03:33:08.665Z,8.77
2023-01-31T03:35:39.113Z,8.73
